Flight Track Log - Related Links

Times and Time Zones

All times are in EDT time to prevent confusion due to time zone crossing. See the SPR810 flight status page for this flight to view local times or setup timezone preferences in your user account.

Time Position Orientation Groundspeed Altitude Reporting Facility
EDT Latitude Longitude Course Direction KTS MPH feet Rate Location/Type
Fri 01:17:52 PM 46.1333 -60.0667 240° Southwest 150 173 1,700  Level Moncton Center
Fri 01:18:52 PM 46.1167 -60.1167 244° Southwest 160 184 3,300 1,450 Climbing Moncton Center
Fri 01:19:52 PM 46.0833 -60.2000 240° Southwest 160 184 4,600 1,400 Climbing Moncton Center
Fri 01:20:52 PM 46.0667 -60.2500 244° Southwest 180 207 6,100 1,438 Climbing Moncton Center
Fri 01:21:53 PM 46.0500 -60.3167 250° West 180 207 7,500 1,450 Climbing Moncton Center
Fri 01:22:52 PM 46.0167 -60.3667 226° Southwest 170 196 9,000 1,513 Climbing Moncton Center
Fri 01:23:00 PM 45.9909 -60.5063 240° Southwest  Level FlightAware Approximate
Fri 01:23:52 PM 46.0000 -60.4500 254° West 170 196 10,500  Level Moncton Center
Fri 01:24:52 PM 46.0000 -60.5167 270° West 180 207 12,000 1,450 Climbing Moncton Center
Fri 01:25:52 PM 45.9667 -60.5667 226° Southwest 180 207 13,400 1,450 Climbing Moncton Center
Fri 01:26:52 PM 45.9500 -60.6500 254° West 170 196 14,900 1,300 Climbing Moncton Center
Fri 01:27:52 PM 45.9167 -60.7000 226° Southwest 170 196 16,000 650 Climbing Moncton Center
Fri 01:28:52 PM 45.9000 -60.7667 250° West 190 219 16,200 100 Climbing Moncton Center
Fri 01:29:52 PM 45.8667 -60.8333 234° Southwest 210 242 16,200  Level Moncton Center
Fri 01:30:52 PM 45.8333 -60.9167 240° Southwest 220 253 16,200 -50 Level Moncton Center
Fri 01:31:52 PM 45.8000 -60.9833 234° Southwest 230 265 16,100 -50 Descending Moncton Center
Fri 01:32:52 PM 45.7833 -61.0833 257° West 230 265 16,100  Level Moncton Center
Fri 01:33:52 PM 45.7500 -61.1667 240° Southwest 230 265 16,100  Level Moncton Center
Fri 01:34:52 PM 45.7167 -61.2500 240° Southwest 230 265 16,100  Level Moncton Center
Fri 01:35:52 PM 45.6833 -61.3333 240° Southwest 230 265 16,100  Level Moncton Center
Fri 01:36:52 PM 45.6667 -61.4000 250° West 230 265 16,100 -50 Level Moncton Center
Fri 01:37:52 PM 45.6333 -61.5000 245° Southwest 230 265 16,000 -50 Descending Moncton Center
Fri 01:38:52 PM 45.6000 -61.5667 234° Southwest 230 265 16,000  Level Moncton Center
Fri 01:39:52 PM 45.5667 -61.6500 240° Southwest 230 265 16,000  Level Moncton Center
Fri 01:40:52 PM 45.5500 -61.7167 250° West 220 253 16,000  Level Moncton Center
Fri 01:41:52 PM 45.5167 -61.8167 245° Southwest 220 253 16,000  Level Moncton Center
Fri 01:42:52 PM 45.4833 -61.9000 240° Southwest 230 265 16,000  Level Moncton Center
Fri 01:43:52 PM 45.4500 -61.9667 235° Southwest 230 265 16,000 -50 Level Moncton Center
Fri 01:44:52 PM 45.4167 -62.0333 235° Southwest 230 265 15,900 -400 Descending Moncton Center
Fri 01:45:52 PM 45.3667 -62.1167 230° Southwest 240 276 15,200 -750 Descending Moncton Center
Fri 01:46:52 PM 45.3167 -62.1833 223° Southwest 250 288 14,400 -700 Descending Moncton Center
Fri 01:47:52 PM 45.2667 -62.2500 223° Southwest 250 288 13,800 -750 Descending Moncton Center
Fri 01:48:52 PM 45.2500 -62.3500 257° West 250 288 12,900 -800 Descending Moncton Center
Fri 01:49:52 PM 45.2333 -62.4500 257° West 250 288 12,200 -750 Descending Moncton Center
Fri 01:50:52 PM 45.2167 -62.5167 250° West 250 288 11,400 -800 Descending Moncton Center
Fri 01:51:52 PM 45.2000 -62.6167 257° West 250 288 10,600 -900 Descending Moncton Center
Fri 01:52:52 PM 45.1833 -62.7167 257° West 240 276 9,600 -1,050 Descending Moncton Center
Fri 01:53:52 PM 45.1667 -62.8000 254° West 240 276 8,500 -1,100 Descending Moncton Center
Fri 01:54:52 PM 45.1500 -62.9000 257° West 240 276 7,400 -1,200 Descending Moncton Center
Fri 01:55:52 PM 45.1167 -63.0000 245° Southwest 240 276 6,100 -1,250 Descending Moncton Center
Fri 01:56:52 PM 45.1000 -63.0667 251° West 230 265 4,900 -1,250 Descending Moncton Center
Fri 01:57:52 PM 45.0833 -63.1667 257° West 230 265 3,600 -1,050 Descending Moncton Center
Fri 01:58:52 PM 45.0667 -63.2333 251° West 210 242 2,800 -700 Descending Moncton Center
Fri 01:59:52 PM 45.0667 -63.3000 270° West 160 184 2,200 -300 Descending Moncton Center
Fri 02:00:52 PM 45.0333 -63.3333 215° Southwest 140 161 2,200  Level Moncton Center
Fri 02:01:52 PM 45.0000 -63.3500 199° South 130 150 2,200  Level Moncton Center
Fri 02:02:52 PM 44.9667 -63.4000 227° Southwest 140 161 2,200 -50 Level Moncton Center
Fri 02:03:52 PM 44.9333 -63.4333 215° Southwest 140 161 2,100 -400 Descending Moncton Center
Fri 02:04:52 PM 44.9167 -63.4500 215° Southwest 120 138 1,400 -650 Descending Moncton Center
Fri 02:05:52 PM 44.8833 -63.4833 215° Southwest 120 138 800 -600 Descending Moncton Center

Login

Don't have an account? Register now (free) for customized features, flight alerts, and more!